Time;durP1;ratioP1;P1;durP2;ratioP2;P2;SDS_P1;SDS_P2;PMS_P1;PMS_P2;Temp;Humidity;BMP_temperature;BMP_pressure;BME280_temperature;BME280_humidity;BME280_pressure;Samples;Min_cycle;Max_cycle;Signal;HPM_P1;HPM_P2
2023/06/08 00:00:58;;;;;;;9.18;4.72;;;16.90;1.00;;;;;;4933661;29;20411;-69
2023/06/08 00:03:23;;;;;;;7.47;3.60;;;16.90;1.00;;;;;;4951138;29;20775;-69
2023/06/08 00:05:50;;;;;;;9.40;3.90;;;17.00;99.90;;;;;;4950432;29;20413;-69
2023/06/08 00:08:15;;;;;;;10.00;4.03;;;17.10;99.90;;;;;;4934405;29;20394;-69
2023/06/08 00:10:42;;;;;;;9.68;4.60;;;17.10;99.90;;;;;;4950984;29;20410;-69
2023/06/08 00:13:08;;;;;;;10.07;3.97;;;17.10;99.90;;;;;;4950981;29;20406;-69
2023/06/08 00:15:34;;;;;;;10.15;4.00;;;17.10;99.90;;;;;;4950909;29;20432;-69
2023/06/08 00:18:00;;;;;;;8.80;3.85;;;16.90;99.90;;;;;;4933327;29;20930;-69
2023/06/08 00:20:26;;;;;;;8.68;4.10;;;16.80;1.00;;;;;;4950602;29;20429;-68
2023/06/08 00:22:51;;;;;;;7.97;4.10;;;16.70;1.00;;;;;;4950717;29;20961;-69
2023/06/08 00:25:17;;;;;;;10.05;4.43;;;16.70;1.00;;;;;;4951435;29;20822;-69
2023/06/08 00:27:43;;;;;;;8.48;3.90;;;16.70;1.00;;;;;;4950771;28;20501;-68
2023/06/08 00:30:09;;;;;;;12.47;4.60;;;16.60;1.00;;;;;;4950794;29;20450;-68
2023/06/08 00:32:36;;;;;;;8.75;3.85;;;16.50;99.90;;;;;;4950705;29;20402;-69
2023/06/08 00:35:03;;;;;;;8.52;4.15;;;16.40;99.90;;;;;;4950233;29;20489;-69
2023/06/08 00:37:29;;;;;;;9.32;4.70;;;16.30;99.90;;;;;;4950516;29;20394;-68
2023/06/08 00:39:54;;;;;;;11.60;5.30;;;16.20;99.90;;;;;;4950686;29;20441;-69
2023/06/08 00:42:20;;;;;;;9.90;4.90;;;16.30;99.90;;;;;;4933083;29;20957;-69
2023/06/08 00:44:47;;;;;;;9.23;4.33;;;16.30;99.90;;;;;;4950960;29;20820;-69
2023/06/08 00:47:13;;;;;;;9.30;4.60;;;16.30;1.00;;;;;;4950591;29;20397;-68
2023/06/08 00:49:38;;;;;;;9.60;4.85;;;16.30;99.90;;;;;;4950200;29;20425;-69
2023/06/08 00:52:07;;;;;;;12.32;4.60;;;16.20;1.00;;;;;;4950720;29;20486;-69
2023/06/08 00:54:33;;;;;;;11.38;5.10;;;16.10;1.00;;;;;;4958534;29;20445;-68
2023/06/08 00:57:02;;;;;;;9.18;4.68;;;16.10;1.00;;;;;;4957661;29;20500;-68
2023/06/08 00:59:31;;;;;;;9.50;4.25;;;16.00;99.90;;;;;;4954672;29;20406;-69
2023/06/08 01:01:57;;;;;;;10.20;4.88;;;16.00;99.90;;;;;;4951581;29;20479;-68
2023/06/08 01:04:23;;;;;;;12.13;5.10;;;16.00;95.00;;;;;;4933557;29;20950;-69
2023/06/08 01:06:53;;;;;;;8.90;4.40;;;16.00;1.00;;;;;;4950292;29;20409;-69
2023/06/08 01:09:27;;;;;;;10.07;4.47;;;15.80;1.00;;;;;;4950596;29;20556;-69
2023/06/08 01:12:07;;;;;;;11.85;5.00;;;15.90;1.00;;;;;;4950402;29;20421;-69
2023/06/08 01:15:17;;;;;;;8.48;4.47;;;15.90;1.00;;;;;;4949965;29;20393;-68
2023/06/08 01:17:52;;;;;;;9.45;4.60;;;15.80;79.60;;;;;;4890714;29;20441;-69
2023/06/08 01:20:36;;;;;;;9.87;4.80;;;15.80;99.90;;;;;;4891357;29;20801;-69
2023/06/08 01:23:25;;;;;;;8.75;4.40;;;15.80;99.90;;;;;;4931830;29;20406;-69
2023/06/08 01:25:55;;;;;;;10.40;5.00;;;15.70;99.90;;;;;;4949943;29;20394;-69
2023/06/08 01:28:23;;;;;;;10.00;4.30;;;15.80;99.90;;;;;;4949555;29;20938;-69
2023/06/08 01:30:49;;;;;;;9.48;4.57;;;15.80;76.80;;;;;;4949843;29;20917;-69
2023/06/08 01:33:17;;;;;;;9.07;4.80;;;15.60;99.90;;;;;;4950023;29;20437;-68
2023/06/08 01:35:50;;;;;;;10.17;4.73;;;15.50;1.00;;;;;;4949849;29;20409;-68
2023/06/08 01:38:24;;;;;;;9.30;4.70;;;15.50;1.00;;;;;;4950009;28;20869;-69
2023/06/08 01:40:56;;;;;;;8.65;4.63;;;15.60;1.00;;;;;;4936828;29;20471;-69
2023/06/08 01:43:25;;;;;;;9.77;4.43;;;15.70;99.90;;;;;;4953772;29;20405;-69
2023/06/08 01:45:54;;;;;;;11.02;5.03;;;15.70;1.00;;;;;;4953518;29;20390;-69
2023/06/08 01:48:24;;;;;;;9.70;4.28;;;15.70;99.90;;;;;;4953321;29;20399;-68
2023/06/08 01:50:51;;;;;;;8.90;4.27;;;15.60;1.00;;;;;;4953509;29;20875;-68
2023/06/08 01:53:17;;;;;;;9.35;4.45;;;15.40;99.90;;;;;;4953954;29;20476;-68
2023/06/08 01:55:43;;;;;;;11.15;5.30;;;15.30;99.90;;;;;;4953641;29;20398;-68
2023/06/08 01:58:09;;;;;;;11.00;4.87;;;15.40;99.90;;;;;;4953407;29;20416;-68
2023/06/08 02:00:35;;;;;;;8.98;4.53;;;15.30;1.00;;;;;;4953228;29;20395;-68
2023/06/08 02:03:00;;;;;;;10.18;4.65;;;15.10;1.00;;;;;;4916788;29;20438;-68
2023/06/08 02:05:26;;;;;;;9.45;4.80;;;15.10;78.70;;;;;;4934300;29;20404;-68
2023/06/08 02:07:51;;;;;;;9.80;5.17;;;15.00;99.90;;;;;;4934067;29;20431;-68
2023/06/08 02:10:17;;;;;;;10.50;5.30;;;14.90;1.00;;;;;;4934251;29;20770;-68
2023/06/08 02:12:43;;;;;;;9.75;4.97;;;14.90;1.00;;;;;;4933868;29;20411;-68
2023/06/08 02:15:09;;;;;;;11.32;5.22;;;14.90;1.00;;;;;;4933804;29;20392;-68
2023/06/08 02:17:37;;;;;;;10.68;5.47;;;14.80;99.90;;;;;;4934157;29;20410;-68
2023/06/08 02:20:08;;;;;;;9.95;5.45;;;14.80;99.90;;;;;;4934160;29;20439;-68
2023/06/08 02:22:35;;;;;;;9.75;5.20;;;14.70;1.00;;;;;;4934968;29;20407;-68
2023/06/08 02:25:01;;;;;;;10.32;5.03;;;14.70;10.00;;;;;;4942395;29;20408;-67
2023/06/08 02:27:27;;;;;;;10.43;5.47;;;14.70;99.90;;;;;;4942151;29;20406;-68
2023/06/08 02:29:54;;;;;;;11.52;5.05;;;14.80;1.00;;;;;;4938196;29;20432;-67
2023/06/08 02:32:19;;;;;;;9.98;5.03;;;14.80;1.00;;;;;;4935218;29;20399;-68
2023/06/08 02:34:53;;;;;;;10.53;5.20;;;14.90;1.00;;;;;;4933640;29;20729;-68
2023/06/08 02:37:19;;;;;;;9.43;4.95;;;14.80;1.00;;;;;;4933202;29;20436;-68
2023/06/08 02:39:46;;;;;;;9.85;4.95;;;14.90;1.00;;;;;;4933976;29;20403;-68
2023/06/08 02:42:14;;;;;;;9.70;4.78;;;14.80;83.10;;;;;;4933552;29;20396;-68
2023/06/08 02:44:39;;;;;;;10.50;4.85;;;14.80;1.00;;;;;;4932721;29;20813;-67
2023/06/08 02:47:08;;;;;;;9.77;4.97;;;14.80;46.90;;;;;;4933334;29;20436;-67
2023/06/08 02:49:33;;;;;;;11.40;5.55;;;14.80;1.00;;;;;;4932877;29;20586;-68
2023/06/08 02:51:59;;;;;;;11.10;5.00;;;14.70;99.90;;;;;;4932066;29;20955;-68
2023/06/08 02:54:25;;;;;;;11.02;5.35;;;14.60;99.90;;;;;;4933001;29;20450;-68
2023/06/08 02:56:50;;;;;;;10.53;4.83;;;14.50;1.00;;;;;;4933242;29;20376;-68
2023/06/08 02:59:16;;;;;;;10.90;5.47;;;14.50;1.00;;;;;;4933207;29;20639;-68
2023/06/08 03:01:52;;;;;;;12.30;5.20;;;14.40;1.00;;;;;;4935493;29;20906;-68
2023/06/08 03:04:24;;;;;;;12.32;5.85;;;14.40;1.00;;;;;;4952591;29;20914;-68
2023/06/08 03:06:53;;;;;;;10.25;5.38;;;14.30;71.90;;;;;;4952087;29;20409;-69
2023/06/08 03:09:28;;;;;;;12.35;5.30;;;14.40;1.00;;;;;;4952175;29;20436;-68
2023/06/08 03:11:54;;;;;;;10.45;6.18;;;14.20;21.50;;;;;;4935419;29;20409;-68
2023/06/08 03:14:20;;;;;;;11.90;6.25;;;14.10;99.90;;;;;;4951728;29;20980;-68
2023/06/08 03:16:46;;;;;;;12.88;6.20;;;14.10;99.90;;;;;;4952571;29;20496;-68
2023/06/08 03:19:13;;;;;;;11.43;6.20;;;14.20;99.90;;;;;;4951376;29;20405;-68
2023/06/08 03:21:41;;;;;;;11.40;6.00;;;14.30;99.90;;;;;;4951806;29;20409;-68
2023/06/08 03:24:11;;;;;;;11.20;5.63;;;14.30;99.90;;;;;;4951243;29;20405;-67
2023/06/08 03:26:37;;;;;;;10.48;5.40;;;14.30;99.90;;;;;;4951511;29;20386;-68
2023/06/08 03:29:02;;;;;;;10.75;5.38;;;14.30;99.90;;;;;;4951142;29;20521;-68
2023/06/08 03:31:29;;;;;;;10.90;5.27;;;14.40;2.00;;;;;;4951730;29;20469;-68
2023/06/08 03:33:55;;;;;;;12.45;6.05;;;14.30;90.30;;;;;;4951479;29;20492;-68
2023/06/08 03:36:20;;;;;;;12.37;5.77;;;14.50;55.20;;;;;;4951798;29;20474;-68
2023/06/08 03:38:46;;;;;;;12.80;5.65;;;14.60;1.00;;;;;;4952025;29;20452;-68
2023/06/08 03:41:13;;;;;;;10.63;5.60;;;14.50;1.00;;;;;;4951366;29;20977;-68
2023/06/08 03:43:40;;;;;;;10.33;5.40;;;14.40;1.00;;;;;;4951298;29;20404;-68
2023/06/08 03:46:05;;;;;;;11.60;5.30;;;14.40;1.00;;;;;;4951491;29;20913;-68
2023/06/08 03:48:32;;;;;;;12.77;5.38;;;14.40;1.00;;;;;;4951560;29;20402;-68
2023/06/08 03:50:58;;;;;;;11.98;5.45;;;14.30;1.00;;;;;;4951408;29;20421;-68
2023/06/08 03:53:23;;;;;;;10.87;5.60;;;14.30;1.00;;;;;;4952733;29;20425;-68
2023/06/08 03:55:49;;;;;;;12.32;5.57;;;14.30;1.00;;;;;;4960753;29;20791;-68
2023/06/08 03:58:15;;;;;;;10.60;5.77;;;14.30;99.90;;;;;;4957534;29;20505;-68
2023/06/08 04:00:41;;;;;;;11.83;5.10;;;14.30;99.90;;;;;;4955342;29;20811;-68
2023/06/08 04:03:06;;;;;;;11.27;6.00;;;14.30;1.00;;;;;;4952186;28;20462;-68
2023/06/08 04:05:34;;;;;;;11.75;5.93;;;14.30;1.00;;;;;;4951955;29;20408;-68
2023/06/08 04:08:02;;;;;;;12.90;6.07;;;14.50;99.90;;;;;;4951331;29;20437;-68
2023/06/08 04:10:29;;;;;;;11.45;5.90;;;14.70;1.00;;;;;;4951471;29;20455;-68
2023/06/08 04:12:55;;;;;;;11.63;6.47;;;14.90;1.00;;;;;;4951255;29;21070;-68
2023/06/08 04:15:20;;;;;;;11.20;6.30;;;15.10;99.90;;;;;;4951415;29;20398;-68
2023/06/08 04:17:49;;;;;;;11.27;5.90;;;15.20;1.00;;;;;;4951594;29;20391;-68
2023/06/08 04:20:15;;;;;;;10.35;5.50;;;15.20;99.90;;;;;;4951543;29;20509;-68
2023/06/08 04:22:41;;;;;;;11.02;6.35;;;15.10;1.00;;;;;;4951087;29;20402;-68
2023/06/08 04:25:07;;;;;;;11.13;5.78;;;15.10;99.90;;;;;;4933584;29;20425;-68
2023/06/08 04:27:34;;;;;;;11.27;5.68;;;15.20;44.40;;;;;;4950648;29;20549;-68
2023/06/08 04:30:02;;;;;;;11.30;6.20;;;15.30;34.80;;;;;;4950832;29;20426;-68
2023/06/08 04:32:28;;;;;;;10.93;6.53;;;15.50;99.90;;;;;;4950523;29;20402;-68
2023/06/08 04:34:53;;;;;;;11.90;6.30;;;15.80;62.40;;;;;;4933540;29;20428;-68
2023/06/08 04:37:19;;;;;;;13.03;6.63;;;16.00;99.90;;;;;;4950967;29;20640;-69
2023/06/08 04:39:45;;;;;;;12.30;6.70;;;16.10;1.00;;;;;;4950626;29;20385;-68
2023/06/08 04:42:10;;;;;;;11.35;5.55;;;16.20;1.00;;;;;;4950437;29;20426;-68
2023/06/08 04:44:36;;;;;;;12.90;6.03;;;16.40;1.00;;;;;;4950705;29;20485;-68
2023/06/08 04:47:02;;;;;;;11.47;6.00;;;16.40;99.90;;;;;;4933228;29;20493;-68
2023/06/08 04:49:31;;;;;;;12.10;5.57;;;16.50;99.90;;;;;;4950340;29;20448;-68
2023/06/08 04:52:00;;;;;;;14.60;6.28;;;16.40;1.00;;;;;;4950116;29;20564;-68
2023/06/08 04:54:29;;;;;;;11.20;5.97;;;16.50;65.90;;;;;;4949692;29;20887;-68
2023/06/08 04:56:58;;;;;;;11.85;6.00;;;16.60;1.00;;;;;;4950240;29;20738;-68
2023/06/08 04:59:27;;;;;;;11.57;6.05;;;16.60;99.90;;;;;;4950047;29;20743;-68
2023/06/08 05:01:54;;;;;;;10.77;5.90;;;16.70;99.90;;;;;;4950185;29;20472;-69
2023/06/08 05:04:20;;;;;;;12.10;6.20;;;16.80;1.00;;;;;;4929752;29;20395;-68
2023/06/08 05:06:47;;;;;;;10.10;5.35;;;17.00;1.00;;;;;;4950622;29;20497;-68
2023/06/08 05:09:12;;;;;;;11.03;5.87;;;16.80;99.90;;;;;;4949791;29;20444;-67
2023/06/08 05:11:40;;;;;;;12.30;6.28;;;16.60;1.00;;;;;;4950296;29;20433;-68
2023/06/08 05:14:10;;;;;;;11.63;6.00;;;16.70;1.00;;;;;;4949247;28;20917;-67
2023/06/08 05:16:36;;;;;;;12.30;5.90;;;16.70;1.00;;;;;;4950783;29;20459;-68
2023/06/08 05:19:05;;;;;;;11.50;6.30;;;16.90;1.00;;;;;;4950286;29;20450;-67
2023/06/08 05:21:31;;;;;;;11.77;5.97;;;17.20;99.90;;;;;;4950234;29;20396;-67
2023/06/08 05:23:57;;;;;;;14.18;5.80;;;17.60;99.90;;;;;;4950218;29;20781;-68
2023/06/08 05:26:22;;;;;;;11.90;6.40;;;18.50;1.00;;;;;;4952307;29;20398;-68
2023/06/08 05:28:49;;;;;;;10.40;5.37;;;19.40;1.00;;;;;;4959487;29;20500;-68
2023/06/08 05:31:14;;;;;;;9.85;5.35;;;19.70;1.00;;;;;;4936841;29;20749;-68
2023/06/08 05:33:40;;;;;;;10.70;5.73;;;20.00;1.00;;;;;;4952326;29;20404;-68
2023/06/08 05:36:06;;;;;;;11.00;5.90;;;20.20;1.00;;;;;;4949840;29;20394;-68
2023/06/08 05:38:32;;;;;;;10.60;5.45;;;20.40;1.00;;;;;;4950171;29;20804;-68
2023/06/08 05:40:59;;;;;;;11.07;5.50;;;21.00;1.00;;;;;;4950230;29;20402;-69
2023/06/08 05:43:25;;;;;;;9.57;4.88;;;22.10;99.90;;;;;;4950306;29;20461;-69
2023/06/08 05:45:51;;;;;;;9.70;5.18;;;23.70;99.90;;;;;;4950114;29;20477;-69
2023/06/08 05:48:17;;;;;;;9.00;4.90;;;25.30;99.90;;;;;;4950516;29;20810;-69
2023/06/08 05:50:43;;;;;;;10.43;4.50;;;26.90;99.90;;;;;;4950228;29;20426;-69
2023/06/08 05:53:09;;;;;;;8.93;4.85;;;28.40;99.90;;;;;;4950158;29;20855;-70
2023/06/08 05:55:36;;;;;;;10.43;5.38;;;28.70;99.90;;;;;;4950069;29;20771;-69
2023/06/08 05:58:02;;;;;;;10.00;4.40;;;28.90;99.90;;;;;;4949823;29;20397;-69
2023/06/08 06:00:27;;;;;;;8.73;4.60;;;29.30;99.90;;;;;;4950024;29;20751;-69
2023/06/08 06:02:55;;;;;;;9.17;4.90;;;29.50;99.90;;;;;;4950150;29;20430;-69
2023/06/08 06:05:20;;;;;;;9.00;4.88;;;28.70;99.90;;;;;;4949754;29;20416;-69
2023/06/08 06:07:46;;;;;;;8.70;4.60;;;28.20;99.90;;;;;;4950035;29;20398;-69
2023/06/08 06:10:11;;;;;;;10.10;5.30;;;27.50;99.90;;;;;;4949553;29;20516;-69
2023/06/08 06:12:37;;;;;;;9.87;5.50;;;26.60;99.90;;;;;;4949894;29;20432;-68
2023/06/08 06:15:03;;;;;;;10.93;5.60;;;25.30;99.90;;;;;;4950081;29;20450;-68
2023/06/08 06:17:28;;;;;;;9.07;5.03;;;24.40;99.90;;;;;;4949291;29;20779;-69
2023/06/08 06:19:54;;;;;;;9.90;5.30;;;24.10;99.90;;;;;;4932517;29;20398;-69
2023/06/08 06:22:19;;;;;;;11.70;6.37;;;23.90;99.90;;;;;;4949271;29;20390;-69
2023/06/08 06:24:45;;;;;;;10.30;5.60;;;24.10;99.90;;;;;;4950632;28;20566;-69
2023/06/08 06:27:13;;;;;;;11.10;5.80;;;24.40;99.90;;;;;;4935813;29;20393;-68
2023/06/08 06:29:39;;;;;;;9.40;5.32;;;24.30;99.90;;;;;;4953156;29;20452;-69
2023/06/08 06:32:06;;;;;;;9.95;5.45;;;24.30;99.90;;;;;;4953157;29;20939;-69
2023/06/08 06:34:32;;;;;;;9.73;5.20;;;23.70;99.90;;;;;;4953127;29;20425;-69
2023/06/08 06:36:58;;;;;;;9.43;4.90;;;23.50;99.90;;;;;;4952776;29;20942;-69
2023/06/08 06:39:23;;;;;;;9.30;4.82;;;23.70;99.90;;;;;;4952945;29;20493;-68
2023/06/08 06:41:49;;;;;;;10.17;4.87;;;23.80;99.90;;;;;;4935715;29;20501;-69
2023/06/08 06:44:14;;;;;;;10.63;5.43;;;24.10;99.90;;;;;;4953610;29;20428;-69
2023/06/08 06:46:40;;;;;;;10.73;6.00;;;24.10;99.90;;;;;;4935450;29;20495;-69
2023/06/08 06:49:06;;;;;;;12.13;6.40;;;24.30;99.90;;;;;;4952610;29;20409;-69
2023/06/08 06:51:32;;;;;;;11.45;6.00;;;24.50;99.90;;;;;;4952029;29;20472;-68
2023/06/08 06:53:58;;;;;;;11.35;5.68;;;25.10;99.90;;;;;;4952748;29;20486;-69
2023/06/08 06:56:23;;;;;;;10.87;6.10;;;25.00;99.90;;;;;;4953164;29;20485;-68
2023/06/08 06:58:49;;;;;;;11.57;5.50;;;24.70;99.90;;;;;;4953045;29;20902;-69
2023/06/08 07:01:18;;;;;;;10.87;5.57;;;24.60;99.90;;;;;;4953489;29;20502;-68
2023/06/08 07:03:44;;;;;;;9.50;5.40;;;24.70;99.90;;;;;;4953512;29;20402;-69
2023/06/08 07:25:09;;;;;;;12.20;6.07;;;26.60;99.90;;;;;;4973007;28;20516;-82
2023/06/08 07:27:34;;;;;;;9.60;5.50;;;26.30;99.90;;;;;;4951943;28;20429;-81
2023/06/08 07:30:00;;;;;;;10.70;5.57;;;26.10;99.90;;;;;;4941899;29;20523;-81
2023/06/08 07:32:29;;;;;;;10.30;5.63;;;26.90;99.90;;;;;;4958483;28;20565;-82
2023/06/08 07:34:55;;;;;;;9.50;5.10;;;28.30;99.90;;;;;;4957687;29;20867;-82
2023/06/08 07:37:22;;;;;;;10.98;6.35;;;29.70;99.90;;;;;;4954897;28;20410;-81
2023/06/08 07:39:47;;;;;;;9.30;5.13;;;29.20;99.90;;;;;;4956040;29;20895;-82
2023/06/08 07:42:13;;;;;;;10.63;5.73;;;29.00;99.90;;;;;;4942146;28;20422;-81
2023/06/08 07:44:38;;;;;;;10.60;5.83;;;29.90;99.90;;;;;;4959720;28;20414;-82
2023/06/08 07:47:04;;;;;;;11.98;5.40;;;29.60;99.90;;;;;;4952524;28;20402;-82
2023/06/08 07:49:30;;;;;;;9.38;5.28;;;29.00;99.90;;;;;;4961440;28;20426;-82
2023/06/08 07:51:55;;;;;;;12.13;5.47;;;28.70;99.90;;;;;;4953588;28;20437;-83
2023/06/08 07:54:22;;;;;;;11.90;5.90;;;29.40;99.90;;;;;;4953244;28;20421;-83
2023/06/08 07:56:48;;;;;;;10.57;5.38;;;30.40;99.90;;;;;;4955267;28;20891;-80
2023/06/08 07:59:14;;;;;;;10.38;5.50;;;31.50;99.90;;;;;;4958930;28;20450;-80
2023/06/08 08:01:41;;;;;;;9.85;5.38;;;32.30;99.90;;;;;;4952535;28;20409;-82
2023/06/08 08:04:06;;;;;;;9.30;5.32;;;32.80;99.90;;;;;;4955820;28;20445;-81
2023/06/08 08:06:32;;;;;;;9.17;5.40;;;32.20;99.90;;;;;;4964319;28;21131;-82
2023/06/08 08:08:57;;;;;;;9.07;5.27;;;32.90;99.90;;;;;;4963960;28;20508;-80
2023/06/08 08:11:23;;;;;;;10.40;5.05;;;32.50;99.90;;;;;;4965690;28;20978;-82
2023/06/08 08:13:49;;;;;;;9.20;5.00;;;33.50;99.90;;;;;;4961441;28;20402;-82
2023/06/08 08:16:15;;;;;;;9.82;5.80;;;34.90;99.90;;;;;;4968654;28;20414;-82
2023/06/08 08:18:40;;;;;;;9.73;5.45;;;34.40;99.90;;;;;;4969167;28;20400;-82
2023/06/08 08:21:06;;;;;;;10.90;5.83;;;33.60;99.90;;;;;;4962445;28;20472;-82
2023/06/08 08:23:31;;;;;;;8.80;4.72;;;33.60;99.90;;;;;;4978903;28;20506;-82
2023/06/08 08:25:57;;;;;;;9.30;5.13;;;34.60;99.90;;;;;;4965761;28;20472;-82
2023/06/08 08:28:23;;;;;;;11.13;5.60;;;35.10;99.90;;;;;;4967282;28;20448;-82
2023/06/08 08:30:48;;;;;;;11.70;5.60;;;35.70;99.90;;;;;;4961880;28;20424;-82
2023/06/08 08:33:14;;;;;;;10.30;5.80;;;34.60;99.90;;;;;;4963718;28;20412;-82
2023/06/08 08:35:39;;;;;;;9.30;5.10;;;33.80;99.90;;;;;;4965179;28;20403;-82
2023/06/08 08:38:05;;;;;;;11.43;5.95;;;34.50;99.90;;;;;;4972236;28;20475;-82
2023/06/08 08:40:31;;;;;;;10.47;6.20;;;35.60;99.90;;;;;;4961222;28;20418;-80
2023/06/08 08:43:09;;;;;;;10.37;5.70;;;36.20;99.90;;;;;;4966318;28;20460;-80
2023/06/08 08:45:38;;;;;;;10.23;5.95;;;36.50;99.90;;;;;;4962539;28;20421;-82
2023/06/08 08:48:07;;;;;;;9.63;6.10;;;35.30;99.90;;;;;;4971650;28;20899;-80
2023/06/08 08:50:36;;;;;;;9.57;5.40;;;33.90;99.90;;;;;;4961506;28;20437;-80
2023/06/08 08:53:02;;;;;;;8.88;5.00;;;32.30;99.90;;;;;;4965035;28;20442;-80
2023/06/08 08:55:28;;;;;;;9.77;5.70;;;32.20;99.90;;;;;;4964972;28;20420;-79
2023/06/08 08:57:57;;;;;;;8.80;4.70;;;32.40;99.90;;;;;;4971864;28;20423;-81
2023/06/08 09:00:22;;;;;;;9.65;5.07;;;33.40;99.90;;;;;;4959465;28;20416;-81
2023/06/08 09:02:50;;;;;;;9.15;5.18;;;33.70;99.90;;;;;;4961863;28;20496;-79
2023/06/08 09:05:16;;;;;;;11.80;6.10;;;34.40;99.90;;;;;;4953251;28;20444;-79
2023/06/08 09:07:41;;;;;;;9.70;5.80;;;35.50;99.90;;;;;;4953197;28;20417;-80
2023/06/08 09:10:22;;;;;;;10.73;5.20;;;35.40;99.90;;;;;;4964748;28;20508;-81
2023/06/08 09:12:49;;;;;;;9.50;5.63;;;35.20;99.90;;;;;;4967585;28;20455;-82
2023/06/08 09:15:26;;;;;;;8.97;5.53;;;34.70;99.90;;;;;;4964437;28;20420;-82
2023/06/08 09:17:53;;;;;;;8.87;4.73;;;35.30;99.90;;;;;;4972984;28;20408;-80
2023/06/08 09:20:32;;;;;;;9.13;5.20;;;36.10;99.90;;;;;;4955223;28;20807;-80
2023/06/08 09:23:14;;;;;;;9.73;5.53;;;36.00;99.90;;;;;;4961240;28;20411;-82
2023/06/08 09:25:40;;;;;;;9.88;5.40;;;35.70;99.90;;;;;;4971333;28;20443;-82
2023/06/08 09:28:16;;;;;;;10.10;5.27;;;35.30;99.90;;;;;;4959733;28;20440;-82
2023/06/08 09:30:43;;;;;;;8.35;4.55;;;35.70;99.90;;;;;;4958040;28;20431;-82
2023/06/08 09:33:21;;;;;;;11.20;5.50;;;35.80;99.90;;;;;;4961780;28;20421;-82
2023/06/08 09:36:02;;;;;;;9.80;5.60;;;35.10;99.90;;;;;;4960086;28;20432;-82
2023/06/08 09:38:29;;;;;;;9.30;5.10;;;35.20;99.90;;;;;;4965649;28;20414;-82
2023/06/08 09:41:15;;;;;;;9.38;5.20;;;35.70;99.90;;;;;;4966431;28;20417;-81
2023/06/08 09:43:45;;;;;;;8.70;4.88;;;36.30;99.90;;;;;;4957418;28;20948;-82
2023/06/08 09:46:15;;;;;;;8.80;5.40;;;36.30;99.90;;;;;;4963099;28;20946;-82
2023/06/08 09:48:53;;;;;;;9.95;5.38;;;35.80;99.90;;;;;;4970691;28;20472;-80
2023/06/08 09:51:22;;;;;;;9.37;4.80;;;37.50;99.90;;;;;;4967842;28;20424;-79
2023/06/08 09:53:52;;;;;;;8.75;5.10;;;38.10;99.90;;;;;;4965183;28;20427;-80
2023/06/08 09:56:22;;;;;;;9.75;5.00;;;37.10;99.90;;;;;;4965865;28;20417;-80
2023/06/08 09:58:56;;;;;;;9.60;5.80;;;36.80;99.90;;;;;;4970721;28;20396;-79
2023/06/08 10:01:30;;;;;;;10.50;5.30;;;36.20;99.90;;;;;;4973267;28;20781;-80
2023/06/08 10:03:59;;;;;;;9.25;4.93;;;36.20;99.90;;;;;;4979693;28;20380;-82
2023/06/08 10:06:27;;;;;;;8.43;4.60;;;35.90;99.90;;;;;;4985969;28;20904;-81
2023/06/08 10:08:55;;;;;;;8.43;4.80;;;36.20;99.90;;;;;;4962822;28;20892;-81
2023/06/08 10:11:22;;;;;;;10.40;5.32;;;36.20;99.90;;;;;;4978854;28;20415;-80
2023/06/08 10:13:49;;;;;;;9.80;5.30;;;36.50;99.90;;;;;;4979155;28;20426;-80
2023/06/08 10:16:16;;;;;;;9.90;5.75;;;36.70;99.90;;;;;;4981274;28;20403;-83
2023/06/08 10:18:43;;;;;;;9.75;6.10;;;36.20;99.90;;;;;;4976719;28;20441;-82
2023/06/08 10:21:09;;;;;;;10.35;5.60;;;35.90;99.90;;;;;;4976430;28;20415;-82
2023/06/08 10:23:36;;;;;;;9.30;5.68;;;36.00;99.90;;;;;;4976522;28;20426;-82
2023/06/08 10:26:04;;;;;;;9.18;5.25;;;35.40;99.90;;;;;;4978324;28;20455;-83
2023/06/08 10:28:29;;;;;;;9.75;5.70;;;35.70;99.90;;;;;;4978549;28;20404;-82
2023/06/08 10:30:55;;;;;;;9.27;5.20;;;35.60;99.90;;;;;;4979933;28;20428;-82
2023/06/08 10:33:24;;;;;;;9.82;5.35;;;35.30;99.90;;;;;;4974960;28;20408;-81
2023/06/08 10:36:10;;;;;;;9.10;5.50;;;34.10;99.90;;;;;;4974763;28;20384;-81
2023/06/08 10:38:51;;;;;;;9.07;5.17;;;33.20;99.90;;;;;;4977756;28;20392;-80
2023/06/08 10:41:39;;;;;;;11.55;5.93;;;32.60;99.90;;;;;;4977841;28;20443;-80
2023/06/08 10:44:05;;;;;;;10.50;5.80;;;32.70;99.90;;;;;;4977160;28;20769;-80
2023/06/08 10:46:44;;;;;;;11.07;6.10;;;33.00;99.90;;;;;;4976388;28;20601;-80
2023/06/08 10:49:12;;;;;;;11.68;6.35;;;33.00;99.90;;;;;;4975737;28;20486;-80
2023/06/08 10:51:45;;;;;;;10.83;5.80;;;32.80;99.90;;;;;;4979437;28;20476;-80
2023/06/08 10:54:20;;;;;;;9.40;5.50;;;32.70;99.90;;;;;;4980272;28;20403;-81
2023/06/08 10:56:56;;;;;;;9.63;5.40;;;32.80;99.90;;;;;;4983193;28;20415;-80
2023/06/08 10:59:30;;;;;;;9.82;6.18;;;32.50;99.90;;;;;;4978674;28;20431;-82
2023/06/08 11:02:06;;;;;;;8.73;4.35;;;32.00;99.90;;;;;;4977883;28;20400;-82
2023/06/08 11:04:33;;;;;;;9.30;5.40;;;31.70;99.90;;;;;;4980293;28;20392;-82
2023/06/08 11:07:03;;;;;;;8.85;4.75;;;31.80;99.90;;;;;;4979728;28;20412;-82
2023/06/08 11:09:33;;;;;;;9.90;4.82;;;31.50;99.90;;;;;;4977372;28;20460;-82
2023/06/08 11:12:00;;;;;;;8.70;4.53;;;31.40;99.90;;;;;;4975340;28;20951;-82
2023/06/08 11:14:29;;;;;;;11.18;5.38;;;31.80;99.90;;;;;;4975249;28;20419;-83
2023/06/08 11:16:56;;;;;;;9.32;5.03;;;31.60;99.90;;;;;;4976584;28;20407;-83
2023/06/08 11:19:23;;;;;;;9.10;5.00;;;31.70;99.90;;;;;;4976375;28;20465;-83
2023/06/08 11:21:55;;;;;;;11.38;5.28;;;31.90;99.90;;;;;;4977504;28;20396;-81
2023/06/08 11:24:28;;;;;;;9.80;5.28;;;32.30;99.90;;;;;;4973979;28;20427;-80
2023/06/08 11:27:00;;;;;;;11.02;5.38;;;31.60;99.90;;;;;;4966623;28;20925;-83
2023/06/08 11:29:28;;;;;;;9.70;5.40;;;31.50;99.90;;;;;;4974480;28;20456;-82
2023/06/08 11:31:54;;;;;;;10.70;5.40;;;31.40;99.90;;;;;;4975133;28;20404;-82
2023/06/08 11:34:22;;;;;;;9.70;5.47;;;30.90;99.90;;;;;;4976790;28;20392;-82
2023/06/08 11:36:49;;;;;;;10.40;5.90;;;31.00;99.90;;;;;;4978586;28;20427;-82
2023/06/08 11:39:15;;;;;;;10.07;5.40;;;31.00;99.90;;;;;;4984770;28;20398;-82
2023/06/08 11:41:46;;;;;;;10.13;5.27;;;31.20;99.90;;;;;;4976887;28;20885;-82
2023/06/08 11:44:13;;;;;;;11.65;5.47;;;31.50;99.90;;;;;;4975111;28;20407;-82
2023/06/08 11:46:39;;;;;;;10.95;5.60;;;31.40;99.90;;;;;;4974772;28;20419;-82
2023/06/08 11:49:11;;;;;;;10.07;5.10;;;31.40;99.90;;;;;;4956087;28;20645;-81
2023/06/08 11:51:48;;;;;;;9.82;5.10;;;31.50;99.90;;;;;;4964121;28;20504;-80
2023/06/08 11:54:15;;;;;;;10.43;5.87;;;31.30;99.90;;;;;;4955087;28;20924;-81
2023/06/08 11:56:45;;;;;;;10.73;6.40;;;31.40;99.90;;;;;;4957239;28;20416;-81
2023/06/08 11:59:14;;;;;;;10.20;5.60;;;31.20;99.90;;;;;;4972185;28;20404;-82
2023/06/08 12:02:00;;;;;;;9.63;5.30;;;31.10;99.90;;;;;;4970643;28;20403;-81
2023/06/08 12:04:30;;;;;;;10.60;6.17;;;31.50;99.90;;;;;;4971440;28;20392;-81
2023/06/08 12:06:57;;;;;;;12.00;5.80;;;31.50;99.90;;;;;;4971578;28;20403;-81
2023/06/08 12:09:23;;;;;;;10.00;5.50;;;31.30;99.90;;;;;;4973478;28;20551;-81
2023/06/08 12:11:48;;;;;;;8.80;5.10;;;31.50;99.90;;;;;;4974722;28;20448;-81
2023/06/08 12:14:14;;;;;;;9.47;5.37;;;31.30;99.90;;;;;;4974158;28;20388;-81
2023/06/08 12:16:44;;;;;;;10.55;6.30;;;31.20;99.90;;;;;;4972739;28;20535;-81
2023/06/08 12:19:09;;;;;;;10.40;5.60;;;31.90;99.90;;;;;;4972112;28;20404;-81
2023/06/08 12:21:41;;;;;;;10.50;5.72;;;32.30;99.90;;;;;;4974382;28;20411;-81
2023/06/08 12:24:07;;;;;;;9.90;5.40;;;32.30;99.90;;;;;;4975829;28;20427;-81
2023/06/08 12:26:32;;;;;;;9.68;5.40;;;32.20;99.90;;;;;;4969932;28;20412;-80
2023/06/08 12:29:10;;;;;;;10.10;5.97;;;32.00;99.90;;;;;;4966461;28;20507;-81
2023/06/08 12:31:36;;;;;;;9.98;5.75;;;31.40;99.90;;;;;;4968653;28;20392;-80
2023/06/08 12:34:02;;;;;;;10.60;5.43;;;31.20;99.90;;;;;;4972089;28;21300;-80
2023/06/08 12:36:28;;;;;;;11.10;5.82;;;30.90;99.90;;;;;;4970977;28;20435;-80
2023/06/08 12:38:56;;;;;;;10.93;5.90;;;31.00;99.90;;;;;;4973536;28;20397;-80
2023/06/08 12:41:23;;;;;;;11.00;5.63;;;31.30;99.90;;;;;;4973914;28;20404;-80
2023/06/08 12:43:48;;;;;;;10.80;5.80;;;31.20;99.90;;;;;;4974405;28;20380;-80
2023/06/08 12:46:18;;;;;;;10.70;6.30;;;31.50;99.90;;;;;;4973443;28;20480;-80
2023/06/08 12:48:48;;;;;;;10.02;5.47;;;31.90;99.90;;;;;;4972802;28;20435;-80
2023/06/08 12:51:14;;;;;;;11.07;5.95;;;32.10;99.90;;;;;;4973662;28;20435;-80
2023/06/08 12:53:40;;;;;;;9.60;5.70;;;32.50;99.90;;;;;;4973123;28;20531;-80
2023/06/08 12:56:06;;;;;;;13.77;4.63;;;32.50;99.90;;;;;;4972821;28;20424;-80
2023/06/08 12:58:31;;;;;;;12.47;5.07;;;30.90;99.90;;;;;;4970635;28;20465;-80
2023/06/08 13:00:57;;;;;;;12.27;4.97;;;29.40;99.90;;;;;;4972502;28;20428;-80
2023/06/08 13:03:22;;;;;;;9.10;4.30;;;27.80;99.90;;;;;;4971621;28;20412;-80
2023/06/08 13:05:48;;;;;;;11.37;4.20;;;27.00;99.90;;;;;;4972294;28;20399;-80